Airfield :
LOGIN :

Register | Disclaimer

   EN    FR    IT 

 










Legend :    VFR   Marginal VFR   IFR   Intensive IFR   Very Intensive IFR
Visi :
Ceiling :
>= 8 km
>= 3000ft
5 to 8 km
1000 to 3000 ft
1500m to 5 km
500 to 1000 ft
800 to 1500m
200 to 500 ft
< 800m
< 200 ft
Symbols :   Thunderstorms  Fog  Heavy snow  Heavy precipitations  Wind > 20 kt
SIGMETs :     Misc.  Thunderstorms  Icing  Turbulence  Mountain Waves  Volcanic Ashes







- Airport Elevation : 231 ft
- IATA code : WTN


EGXW - RAF Waddington

CURRENT METAR :
  • 190713Z 17004KT 2000 BR OVC002 13/13 Q1006 AMB TEMPO 3000 OVC003 YLO2

EXPIRED METARs :
  • 190550Z 16006KT 0600 FG OVC000 12/12 Q1006 RED
  • 190450Z 16006KT 0150 FG OVC000 12/12 Q1006 RED

TAF TAF EGXW
Valid from the 19 at 06:00 until the 20 at 00:00 UTC


190423Z 1906/1924 14006KT 0500 FG OVC000
BECMG 1906/1909 4000 -RA BKN005
TEMPO 1909/1916 3000 RA BKN003
PROB30
TEMPO 1911/1915 1500 +RA BKN001
BECMG 1917/1920 5000 BR FEW010
TEMPO 1920/1924 -RA BKN014
BECMG 1921/1924 9999 NSW
No reported NOTAMs for that airfield.



MET'MAP, your aeronautical weather chart ! - Copyright ORBIFLY December 2007 - Disclaimer

ORBIFLY MET'MAP TEAM :

Programming & Development : Alexandra Zaïnal
Concept & Development : Baudouin d'Aumeries
Co-Development & Prog : Marc-Olivier Méhu
Technical & hardware support : Manuel Goepfert

Contact : metmap@orbifly.com




SOURCES & CREDITS :

   NOAA